sensor_id;sensor_type;location;lat;lon;timestamp;P1;durP1;ratioP1;P2;durP2;ratioP2
19163;SDS011;9714;51.208;4.242;2023-05-19T00:02:19;18.43;;;5.07;;
19163;SDS011;9714;51.208;4.242;2023-05-19T00:04:49;18.43;;;5.53;;
19163;SDS011;9714;51.208;4.242;2023-05-19T00:07:20;16.30;;;5.50;;
19163;SDS011;9714;51.208;4.242;2023-05-19T00:09:54;15.90;;;5.13;;
19163;SDS011;9714;51.208;4.242;2023-05-19T00:12:23;14.37;;;6.27;;
19163;SDS011;9714;51.208;4.242;2023-05-19T00:14:58;15.80;;;5.77;;
19163;SDS011;9714;51.208;4.242;2023-05-19T00:17:33;17.17;;;6.20;;
19163;SDS011;9714;51.208;4.242;2023-05-19T00:22:35;15.47;;;4.77;;
19163;SDS011;9714;51.208;4.242;2023-05-19T00:25:02;17.70;;;6.10;;
19163;SDS011;9714;51.208;4.242;2023-05-19T00:30:16;20.77;;;6.27;;
19163;SDS011;9714;51.208;4.242;2023-05-19T00:35:16;16.70;;;5.30;;
19163;SDS011;9714;51.208;4.242;2023-05-19T00:37:47;13.20;;;5.20;;
19163;SDS011;9714;51.208;4.242;2023-05-19T00:40:17;19.20;;;6.40;;
19163;SDS011;9714;51.208;4.242;2023-05-19T00:42:46;14.73;;;5.60;;
19163;SDS011;9714;51.208;4.242;2023-05-19T00:45:13;17.23;;;5.87;;
19163;SDS011;9714;51.208;4.242;2023-05-19T00:47:41;12.73;;;5.30;;
19163;SDS011;9714;51.208;4.242;2023-05-19T00:50:09;18.73;;;5.97;;
19163;SDS011;9714;51.208;4.242;2023-05-19T00:52:36;15.97;;;5.77;;
19163;SDS011;9714;51.208;4.242;2023-05-19T00:55:07;20.33;;;6.33;;
19163;SDS011;9714;51.208;4.242;2023-05-19T00:57:39;17.30;;;5.57;;
19163;SDS011;9714;51.208;4.242;2023-05-19T01:02:42;17.40;;;5.80;;
19163;SDS011;9714;51.208;4.242;2023-05-19T01:05:16;17.67;;;5.83;;
19163;SDS011;9714;51.208;4.242;2023-05-19T01:08:00;19.63;;;5.53;;
19163;SDS011;9714;51.208;4.242;2023-05-19T01:10:35;19.97;;;5.83;;
19163;SDS011;9714;51.208;4.242;2023-05-19T01:13:06;15.70;;;5.90;;
19163;SDS011;9714;51.208;4.242;2023-05-19T01:15:37;15.40;;;5.27;;
19163;SDS011;9714;51.208;4.242;2023-05-19T01:18:23;19.40;;;5.53;;
19163;SDS011;9714;51.208;4.242;2023-05-19T01:21:02;20.17;;;6.33;;
19163;SDS011;9714;51.208;4.242;2023-05-19T01:23:56;14.13;;;5.30;;
19163;SDS011;9714;51.208;4.242;2023-05-19T01:26:44;17.17;;;6.10;;
19163;SDS011;9714;51.208;4.242;2023-05-19T01:29:41;16.23;;;5.47;;
19163;SDS011;9714;51.208;4.242;2023-05-19T01:32:24;17.07;;;6.17;;
19163;SDS011;9714;51.208;4.242;2023-05-19T01:34:55;15.93;;;4.83;;
19163;SDS011;9714;51.208;4.242;2023-05-19T01:37:38;17.83;;;5.93;;
19163;SDS011;9714;51.208;4.242;2023-05-19T01:40:11;18.77;;;5.90;;
19163;SDS011;9714;51.208;4.242;2023-05-19T01:42:39;20.93;;;5.43;;
19163;SDS011;9714;51.208;4.242;2023-05-19T01:48:11;15.23;;;5.37;;
19163;SDS011;9714;51.208;4.242;2023-05-19T01:50:46;20.40;;;6.40;;
19163;SDS011;9714;51.208;4.242;2023-05-19T01:56:06;12.13;;;5.73;;
19163;SDS011;9714;51.208;4.242;2023-05-19T01:58:42;18.33;;;6.30;;
19163;SDS011;9714;51.208;4.242;2023-05-19T02:01:15;18.17;;;6.03;;
19163;SDS011;9714;51.208;4.242;2023-05-19T02:06:40;15.47;;;6.00;;
19163;SDS011;9714;51.208;4.242;2023-05-19T02:09:12;16.97;;;6.63;;
19163;SDS011;9714;51.208;4.242;2023-05-19T02:11:45;23.97;;;6.87;;
19163;SDS011;9714;51.208;4.242;2023-05-19T02:14:24;15.70;;;6.30;;
19163;SDS011;9714;51.208;4.242;2023-05-19T02:16:57;17.87;;;6.17;;
19163;SDS011;9714;51.208;4.242;2023-05-19T02:19:35;15.33;;;6.07;;
19163;SDS011;9714;51.208;4.242;2023-05-19T02:24:37;21.33;;;6.43;;
19163;SDS011;9714;51.208;4.242;2023-05-19T02:27:07;21.07;;;5.77;;
19163;SDS011;9714;51.208;4.242;2023-05-19T02:29:50;17.13;;;6.00;;
19163;SDS011;9714;51.208;4.242;2023-05-19T02:32:24;16.17;;;5.97;;
19163;SDS011;9714;51.208;4.242;2023-05-19T02:34:54;17.70;;;6.63;;
19163;SDS011;9714;51.208;4.242;2023-05-19T02:37:23;23.83;;;6.97;;
19163;SDS011;9714;51.208;4.242;2023-05-19T02:39:54;22.87;;;7.17;;
19163;SDS011;9714;51.208;4.242;2023-05-19T02:42:23;18.67;;;6.77;;
19163;SDS011;9714;51.208;4.242;2023-05-19T02:44:51;18.57;;;6.60;;
19163;SDS011;9714;51.208;4.242;2023-05-19T02:47:20;18.73;;;6.70;;
19163;SDS011;9714;51.208;4.242;2023-05-19T02:49:48;18.10;;;6.57;;
19163;SDS011;9714;51.208;4.242;2023-05-19T02:52:17;16.90;;;7.10;;
19163;SDS011;9714;51.208;4.242;2023-05-19T02:54:46;20.17;;;6.93;;
19163;SDS011;9714;51.208;4.242;2023-05-19T02:57:15;15.10;;;6.03;;
19163;SDS011;9714;51.208;4.242;2023-05-19T02:59:42;16.63;;;6.53;;
19163;SDS011;9714;51.208;4.242;2023-05-19T03:02:10;15.83;;;6.97;;
19163;SDS011;9714;51.208;4.242;2023-05-19T03:04:39;17.03;;;6.10;;
19163;SDS011;9714;51.208;4.242;2023-05-19T03:07:07;19.37;;;7.50;;
19163;SDS011;9714;51.208;4.242;2023-05-19T03:09:37;17.03;;;6.60;;
19163;SDS011;9714;51.208;4.242;2023-05-19T03:12:05;21.63;;;7.60;;
19163;SDS011;9714;51.208;4.242;2023-05-19T03:14:33;20.90;;;7.47;;
19163;SDS011;9714;51.208;4.242;2023-05-19T03:17:01;15.57;;;6.47;;
19163;SDS011;9714;51.208;4.242;2023-05-19T03:19:33;15.90;;;6.33;;
19163;SDS011;9714;51.208;4.242;2023-05-19T03:22:01;16.27;;;7.27;;
19163;SDS011;9714;51.208;4.242;2023-05-19T03:24:31;16.23;;;6.60;;
19163;SDS011;9714;51.208;4.242;2023-05-19T03:27:00;16.57;;;7.60;;
19163;SDS011;9714;51.208;4.242;2023-05-19T03:29:35;21.27;;;7.20;;
19163;SDS011;9714;51.208;4.242;2023-05-19T03:32:03;23.63;;;6.53;;
19163;SDS011;9714;51.208;4.242;2023-05-19T03:34:37;23.30;;;7.20;;
19163;SDS011;9714;51.208;4.242;2023-05-19T03:37:06;19.23;;;7.67;;
19163;SDS011;9714;51.208;4.242;2023-05-19T03:39:34;21.43;;;7.07;;
19163;SDS011;9714;51.208;4.242;2023-05-19T03:42:05;17.03;;;7.03;;
19163;SDS011;9714;51.208;4.242;2023-05-19T03:44:49;20.53;;;6.33;;
19163;SDS011;9714;51.208;4.242;2023-05-19T03:47:19;17.70;;;7.07;;
19163;SDS011;9714;51.208;4.242;2023-05-19T03:49:49;20.10;;;7.33;;
19163;SDS011;9714;51.208;4.242;2023-05-19T03:52:16;23.27;;;7.40;;
19163;SDS011;9714;51.208;4.242;2023-05-19T03:54:52;17.30;;;7.20;;
19163;SDS011;9714;51.208;4.242;2023-05-19T03:57:24;21.63;;;7.30;;
19163;SDS011;9714;51.208;4.242;2023-05-19T03:59:54;17.93;;;7.30;;
19163;SDS011;9714;51.208;4.242;2023-05-19T04:02:22;19.83;;;7.97;;
19163;SDS011;9714;51.208;4.242;2023-05-19T04:04:49;21.13;;;6.67;;
19163;SDS011;9714;51.208;4.242;2023-05-19T04:07:23;19.80;;;7.67;;
19163;SDS011;9714;51.208;4.242;2023-05-19T04:09:51;17.87;;;6.77;;
19163;SDS011;9714;51.208;4.242;2023-05-19T04:12:18;18.93;;;7.30;;
19163;SDS011;9714;51.208;4.242;2023-05-19T04:14:51;16.97;;;6.40;;
19163;SDS011;9714;51.208;4.242;2023-05-19T04:17:20;24.77;;;7.63;;
19163;SDS011;9714;51.208;4.242;2023-05-19T04:19:50;18.90;;;7.60;;
19163;SDS011;9714;51.208;4.242;2023-05-19T04:22:17;19.20;;;7.57;;
19163;SDS011;9714;51.208;4.242;2023-05-19T04:24:48;15.60;;;6.47;;
19163;SDS011;9714;51.208;4.242;2023-05-19T04:27:22;22.00;;;7.50;;
19163;SDS011;9714;51.208;4.242;2023-05-19T04:29:57;20.33;;;7.03;;
19163;SDS011;9714;51.208;4.242;2023-05-19T04:32:26;21.90;;;8.03;;
19163;SDS011;9714;51.208;4.242;2023-05-19T04:34:55;18.70;;;7.77;;
19163;SDS011;9714;51.208;4.242;2023-05-19T04:37:30;17.23;;;7.30;;
19163;SDS011;9714;51.208;4.242;2023-05-19T04:40:04;21.03;;;7.00;;
19163;SDS011;9714;51.208;4.242;2023-05-19T04:42:36;23.50;;;7.23;;
19163;SDS011;9714;51.208;4.242;2023-05-19T04:45:14;20.43;;;7.20;;
19163;SDS011;9714;51.208;4.242;2023-05-19T04:47:48;21.40;;;7.43;;
19163;SDS011;9714;51.208;4.242;2023-05-19T04:52:49;20.53;;;7.27;;
19163;SDS011;9714;51.208;4.242;2023-05-19T04:55:25;20.00;;;7.03;;
19163;SDS011;9714;51.208;4.242;2023-05-19T04:57:59;21.47;;;7.97;;
19163;SDS011;9714;51.208;4.242;2023-05-19T05:00:41;22.53;;;7.57;;
19163;SDS011;9714;51.208;4.242;2023-05-19T05:03:14;20.80;;;7.60;;
19163;SDS011;9714;51.208;4.242;2023-05-19T05:05:43;19.77;;;7.40;;
19163;SDS011;9714;51.208;4.242;2023-05-19T05:08:13;18.27;;;7.37;;
19163;SDS011;9714;51.208;4.242;2023-05-19T05:13:22;22.47;;;7.23;;
19163;SDS011;9714;51.208;4.242;2023-05-19T05:15:52;14.47;;;7.17;;
19163;SDS011;9714;51.208;4.242;2023-05-19T05:26:35;17.57;;;7.17;;
19163;SDS011;9714;51.208;4.242;2023-05-19T05:29:08;22.13;;;8.50;;
19163;SDS011;9714;51.208;4.242;2023-05-19T05:31:37;26.20;;;8.07;;
19163;SDS011;9714;51.208;4.242;2023-05-19T05:34:07;18.70;;;8.20;;
19163;SDS011;9714;51.208;4.242;2023-05-19T05:36:36;25.03;;;8.80;;
19163;SDS011;9714;51.208;4.242;2023-05-19T05:39:03;20.87;;;8.07;;
19163;SDS011;9714;51.208;4.242;2023-05-19T05:41:31;17.47;;;7.43;;
19163;SDS011;9714;51.208;4.242;2023-05-19T05:44:00;22.43;;;7.90;;
19163;SDS011;9714;51.208;4.242;2023-05-19T05:46:31;20.27;;;8.90;;
19163;SDS011;9714;51.208;4.242;2023-05-19T05:49:04;22.63;;;8.40;;
19163;SDS011;9714;51.208;4.242;2023-05-19T05:51:32;16.63;;;7.77;;
19163;SDS011;9714;51.208;4.242;2023-05-19T05:54:06;25.63;;;8.83;;
19163;SDS011;9714;51.208;4.242;2023-05-19T05:56:35;19.13;;;7.70;;
19163;SDS011;9714;51.208;4.242;2023-05-19T05:59:05;16.33;;;7.67;;
19163;SDS011;9714;51.208;4.242;2023-05-19T06:01:33;18.90;;;8.20;;
19163;SDS011;9714;51.208;4.242;2023-05-19T06:04:04;26.17;;;9.03;;
19163;SDS011;9714;51.208;4.242;2023-05-19T06:06:32;20.63;;;8.23;;
19163;SDS011;9714;51.208;4.242;2023-05-19T06:09:04;23.33;;;8.33;;
19163;SDS011;9714;51.208;4.242;2023-05-19T06:11:34;18.43;;;7.60;;
19163;SDS011;9714;51.208;4.242;2023-05-19T06:16:33;22.40;;;8.87;;
19163;SDS011;9714;51.208;4.242;2023-05-19T06:19:08;20.83;;;8.83;;
19163;SDS011;9714;51.208;4.242;2023-05-19T06:21:39;17.77;;;7.47;;
19163;SDS011;9714;51.208;4.242;2023-05-19T06:24:25;17.87;;;8.00;;
19163;SDS011;9714;51.208;4.242;2023-05-19T06:26:57;26.93;;;8.13;;
19163;SDS011;9714;51.208;4.242;2023-05-19T06:29:24;18.93;;;8.07;;
19163;SDS011;9714;51.208;4.242;2023-05-19T06:31:52;20.77;;;8.13;;
19163;SDS011;9714;51.208;4.242;2023-05-19T06:34:36;17.80;;;8.10;;
19163;SDS011;9714;51.208;4.242;2023-05-19T06:37:06;20.17;;;8.13;;
19163;SDS011;9714;51.208;4.242;2023-05-19T06:39:51;19.23;;;8.67;;
19163;SDS011;9714;51.208;4.242;2023-05-19T06:42:30;25.93;;;8.27;;
19163;SDS011;9714;51.208;4.242;2023-05-19T06:44:58;20.00;;;8.63;;
19163;SDS011;9714;51.208;4.242;2023-05-19T06:47:29;19.47;;;8.00;;
19163;SDS011;9714;51.208;4.242;2023-05-19T06:50:06;19.87;;;8.20;;
19163;SDS011;9714;51.208;4.242;2023-05-19T06:52:44;22.47;;;7.87;;
19163;SDS011;9714;51.208;4.242;2023-05-19T06:55:20;19.10;;;7.87;;
19163;SDS011;9714;51.208;4.242;2023-05-19T06:57:50;22.27;;;8.60;;
19163;SDS011;9714;51.208;4.242;2023-05-19T07:00:24;21.80;;;9.17;;
19163;SDS011;9714;51.208;4.242;2023-05-19T07:02:59;22.20;;;8.53;;
19163;SDS011;9714;51.208;4.242;2023-05-19T07:05:28;17.63;;;7.47;;
19163;SDS011;9714;51.208;4.242;2023-05-19T07:07:59;19.43;;;8.23;;
19163;SDS011;9714;51.208;4.242;2023-05-19T07:10:34;21.57;;;7.97;;
19163;SDS011;9714;51.208;4.242;2023-05-19T07:13:02;16.80;;;7.73;;
19163;SDS011;9714;51.208;4.242;2023-05-19T07:15:33;18.90;;;8.07;;
19163;SDS011;9714;51.208;4.242;2023-05-19T07:18:07;16.03;;;7.77;;
19163;SDS011;9714;51.208;4.242;2023-05-19T07:20:42;17.27;;;7.30;;
19163;SDS011;9714;51.208;4.242;2023-05-19T07:23:10;16.73;;;7.87;;
19163;SDS011;9714;51.208;4.242;2023-05-19T07:25:39;18.30;;;7.77;;
19163;SDS011;9714;51.208;4.242;2023-05-19T07:28:07;23.20;;;8.13;;
19163;SDS011;9714;51.208;4.242;2023-05-19T07:30:35;18.83;;;7.93;;
19163;SDS011;9714;51.208;4.242;2023-05-19T07:38:22;18.47;;;8.33;;
19163;SDS011;9714;51.208;4.242;2023-05-19T07:40:50;20.90;;;8.73;;
19163;SDS011;9714;51.208;4.242;2023-05-19T07:43:20;18.27;;;8.10;;
19163;SDS011;9714;51.208;4.242;2023-05-19T07:45:49;19.53;;;8.07;;
19163;SDS011;9714;51.208;4.242;2023-05-19T07:48:33;19.97;;;8.90;;
19163;SDS011;9714;51.208;4.242;2023-05-19T07:51:07;25.50;;;8.10;;
19163;SDS011;9714;51.208;4.242;2023-05-19T07:53:38;21.20;;;8.03;;
19163;SDS011;9714;51.208;4.242;2023-05-19T07:56:06;20.90;;;7.77;;
19163;SDS011;9714;51.208;4.242;2023-05-19T07:58:36;20.83;;;8.27;;
19163;SDS011;9714;51.208;4.242;2023-05-19T08:01:05;19.20;;;8.47;;
19163;SDS011;9714;51.208;4.242;2023-05-19T08:03:37;21.63;;;8.57;;
19163;SDS011;9714;51.208;4.242;2023-05-19T08:06:04;18.17;;;7.87;;
19163;SDS011;9714;51.208;4.242;2023-05-19T08:08:40;17.33;;;8.17;;
19163;SDS011;9714;51.208;4.242;2023-05-19T08:11:14;16.63;;;7.77;;
19163;SDS011;9714;51.208;4.242;2023-05-19T08:13:48;22.10;;;8.00;;
19163;SDS011;9714;51.208;4.242;2023-05-19T08:18:48;19.73;;;7.20;;
19163;SDS011;9714;51.208;4.242;2023-05-19T08:21:17;14.47;;;6.93;;
19163;SDS011;9714;51.208;4.242;2023-05-19T08:23:47;17.43;;;6.77;;
19163;SDS011;9714;51.208;4.242;2023-05-19T08:26:14;17.67;;;6.93;;
19163;SDS011;9714;51.208;4.242;2023-05-19T08:28:42;15.55;;;6.28;;
19163;SDS011;9714;51.208;4.242;2023-05-19T08:31:16;20.20;;;6.43;;
19163;SDS011;9714;51.208;4.242;2023-05-19T08:33:46;18.60;;;6.53;;
19163;SDS011;9714;51.208;4.242;2023-05-19T08:36:17;24.70;;;6.65;;
19163;SDS011;9714;51.208;4.242;2023-05-19T08:38:49;16.95;;;6.80;;
19163;SDS011;9714;51.208;4.242;2023-05-19T08:41:16;16.38;;;6.90;;
19163;SDS011;9714;51.208;4.242;2023-05-19T08:43:53;19.10;;;7.00;;
19163;SDS011;9714;51.208;4.242;2023-05-19T08:46:21;15.10;;;6.13;;
19163;SDS011;9714;51.208;4.242;2023-05-19T08:49:00;21.23;;;7.32;;
19163;SDS011;9714;51.208;4.242;2023-05-19T08:51:37;16.15;;;6.07;;
19163;SDS011;9714;51.208;4.242;2023-05-19T08:54:13;20.73;;;6.50;;
19163;SDS011;9714;51.208;4.242;2023-05-19T08:56:43;17.23;;;7.03;;
19163;SDS011;9714;51.208;4.242;2023-05-19T08:59:11;14.80;;;6.32;;
19163;SDS011;9714;51.208;4.242;2023-05-19T09:01:41;19.30;;;6.50;;
19163;SDS011;9714;51.208;4.242;2023-05-19T09:04:12;19.45;;;7.35;;
19163;SDS011;9714;51.208;4.242;2023-05-19T09:06:44;15.50;;;6.03;;
19163;SDS011;9714;51.208;4.242;2023-05-19T09:09:16;18.15;;;6.85;;
19163;SDS011;9714;51.208;4.242;2023-05-19T09:11:51;19.75;;;7.22;;
19163;SDS011;9714;51.208;4.242;2023-05-19T09:14:24;15.80;;;6.32;;
19163;SDS011;9714;51.208;4.242;2023-05-19T09:17:06;16.00;;;6.20;;
19163;SDS011;9714;51.208;4.242;2023-05-19T09:19:42;14.73;;;5.38;;
19163;SDS011;9714;51.208;4.242;2023-05-19T09:25:17;16.10;;;5.82;;
19163;SDS011;9714;51.208;4.242;2023-05-19T09:28:02;20.10;;;4.97;;
19163;SDS011;9714;51.208;4.242;2023-05-19T09:30:30;13.95;;;5.40;;
19163;SDS011;9714;51.208;4.242;2023-05-19T09:33:06;17.55;;;5.68;;
19163;SDS011;9714;51.208;4.242;2023-05-19T09:35:34;15.05;;;5.57;;
19163;SDS011;9714;51.208;4.242;2023-05-19T09:38:02;15.77;;;5.10;;
19163;SDS011;9714;51.208;4.242;2023-05-19T09:40:35;13.40;;;4.50;;
19163;SDS011;9714;51.208;4.242;2023-05-19T09:43:05;18.95;;;5.10;;
19163;SDS011;9714;51.208;4.242;2023-05-19T09:45:36;12.80;;;4.45;;
19163;SDS011;9714;51.208;4.242;2023-05-19T09:48:04;17.33;;;4.38;;
19163;SDS011;9714;51.208;4.242;2023-05-19T09:50:32;18.42;;;5.05;;
19163;SDS011;9714;51.208;4.242;2023-05-19T09:53:08;15.32;;;4.43;;
19163;SDS011;9714;51.208;4.242;2023-05-19T09:55:41;10.88;;;3.72;;
19163;SDS011;9714;51.208;4.242;2023-05-19T09:58:15;12.45;;;4.60;;
19163;SDS011;9714;51.208;4.242;2023-05-19T10:00:50;16.35;;;4.32;;
19163;SDS011;9714;51.208;4.242;2023-05-19T10:03:31;35.67;;;6.03;;
19163;SDS011;9714;51.208;4.242;2023-05-19T10:06:04;11.48;;;3.38;;
19163;SDS011;9714;51.208;4.242;2023-05-19T10:11:15;15.43;;;4.35;;
19163;SDS011;9714;51.208;4.242;2023-05-19T10:13:45;14.30;;;3.72;;
19163;SDS011;9714;51.208;4.242;2023-05-19T10:16:21;11.27;;;3.53;;
19163;SDS011;9714;51.208;4.242;2023-05-19T10:18:56;15.07;;;3.75;;
19163;SDS011;9714;51.208;4.242;2023-05-19T10:21:39;11.80;;;3.65;;
19163;SDS011;9714;51.208;4.242;2023-05-19T10:24:12;11.50;;;2.97;;
19163;SDS011;9714;51.208;4.242;2023-05-19T10:26:44;16.27;;;3.78;;
19163;SDS011;9714;51.208;4.242;2023-05-19T10:29:22;12.23;;;3.30;;
19163;SDS011;9714;51.208;4.242;2023-05-19T10:32:00;10.75;;;2.88;;
19163;SDS011;9714;51.208;4.242;2023-05-19T10:37:38;10.63;;;2.75;;
19163;SDS011;9714;51.208;4.242;2023-05-19T10:40:15;14.07;;;3.35;;
19163;SDS011;9714;51.208;4.242;2023-05-19T10:43:00;12.57;;;3.00;;
19163;SDS011;9714;51.208;4.242;2023-05-19T10:45:40;11.25;;;2.75;;
19163;SDS011;9714;51.208;4.242;2023-05-19T10:48:18;13.18;;;2.95;;
19163;SDS011;9714;51.208;4.242;2023-05-19T10:53:39;13.82;;;3.33;;
19163;SDS011;9714;51.208;4.242;2023-05-19T10:56:26;12.65;;;3.47;;
19163;SDS011;9714;51.208;4.242;2023-05-19T10:59:01;10.73;;;2.95;;
19163;SDS011;9714;51.208;4.242;2023-05-19T11:01:32;15.10;;;3.40;;
19163;SDS011;9714;51.208;4.242;2023-05-19T11:04:07;10.60;;;2.83;;
19163;SDS011;9714;51.208;4.242;2023-05-19T11:06:36;10.80;;;2.50;;
19163;SDS011;9714;51.208;4.242;2023-05-19T11:09:23;15.65;;;3.30;;
19163;SDS011;9714;51.208;4.242;2023-05-19T11:12:05;9.68;;;2.60;;
19163;SDS011;9714;51.208;4.242;2023-05-19T11:14:44;11.90;;;2.70;;
19163;SDS011;9714;51.208;4.242;2023-05-19T11:17:15;13.75;;;2.75;;
19163;SDS011;9714;51.208;4.242;2023-05-19T11:19:54;14.98;;;3.08;;
19163;SDS011;9714;51.208;4.242;2023-05-19T11:22:24;10.35;;;3.00;;
19163;SDS011;9714;51.208;4.242;2023-05-19T11:24:53;14.73;;;3.00;;
19163;SDS011;9714;51.208;4.242;2023-05-19T11:27:23;8.65;;;2.35;;
19163;SDS011;9714;51.208;4.242;2023-05-19T11:29:56;16.60;;;3.67;;
19163;SDS011;9714;51.208;4.242;2023-05-19T11:32:30;16.85;;;3.33;;
19163;SDS011;9714;51.208;4.242;2023-05-19T11:35:00;20.20;;;3.22;;
19163;SDS011;9714;51.208;4.242;2023-05-19T11:37:31;12.93;;;2.85;;
19163;SDS011;9714;51.208;4.242;2023-05-19T11:40:05;12.02;;;2.92;;
19163;SDS011;9714;51.208;4.242;2023-05-19T11:42:42;15.85;;;3.55;;
19163;SDS011;9714;51.208;4.242;2023-05-19T11:45:13;13.15;;;3.40;;
19163;SDS011;9714;51.208;4.242;2023-05-19T11:47:41;14.55;;;3.40;;
19163;SDS011;9714;51.208;4.242;2023-05-19T11:50:18;15.00;;;2.72;;
19163;SDS011;9714;51.208;4.242;2023-05-19T11:52:54;15.40;;;3.17;;
19163;SDS011;9714;51.208;4.242;2023-05-19T11:55:35;9.05;;;2.47;;
19163;SDS011;9714;51.208;4.242;2023-05-19T11:58:16;10.98;;;2.53;;
19163;SDS011;9714;51.208;4.242;2023-05-19T12:01:02;14.00;;;3.00;;
19163;SDS011;9714;51.208;4.242;2023-05-19T12:03:34;11.07;;;2.90;;
19163;SDS011;9714;51.208;4.242;2023-05-19T12:06:04;11.70;;;3.08;;
19163;SDS011;9714;51.208;4.242;2023-05-19T12:08:36;9.38;;;2.72;;
19163;SDS011;9714;51.208;4.242;2023-05-19T12:13:45;10.57;;;2.33;;
19163;SDS011;9714;51.208;4.242;2023-05-19T12:16:16;12.68;;;2.70;;
19163;SDS011;9714;51.208;4.242;2023-05-19T12:18:54;8.75;;;2.85;;
19163;SDS011;9714;51.208;4.242;2023-05-19T12:21:23;12.98;;;2.45;;
19163;SDS011;9714;51.208;4.242;2023-05-19T12:23:55;12.45;;;2.83;;
19163;SDS011;9714;51.208;4.242;2023-05-19T12:26:30;13.27;;;3.17;;
19163;SDS011;9714;51.208;4.242;2023-05-19T12:29:08;17.55;;;3.28;;
19163;SDS011;9714;51.208;4.242;2023-05-19T12:37:14;11.27;;;2.85;;
19163;SDS011;9714;51.208;4.242;2023-05-19T12:40:04;15.82;;;2.92;;
19163;SDS011;9714;51.208;4.242;2023-05-19T12:43:11;10.90;;;3.03;;
19163;SDS011;9714;51.208;4.242;2023-05-19T12:46:10;10.10;;;2.40;;
19163;SDS011;9714;51.208;4.242;2023-05-19T12:48:52;9.18;;;2.85;;
19163;SDS011;9714;51.208;4.242;2023-05-19T12:51:49;14.65;;;3.28;;
19163;SDS011;9714;51.208;4.242;2023-05-19T12:54:40;14.10;;;3.45;;
19163;SDS011;9714;51.208;4.242;2023-05-19T12:59:52;11.13;;;2.47;;
19163;SDS011;9714;51.208;4.242;2023-05-19T13:05:42;10.77;;;2.83;;
19163;SDS011;9714;51.208;4.242;2023-05-19T13:08:21;14.38;;;3.10;;
19163;SDS011;9714;51.208;4.242;2023-05-19T13:10:52;19.88;;;3.97;;
19163;SDS011;9714;51.208;4.242;2023-05-19T13:13:29;8.88;;;3.03;;
19163;SDS011;9714;51.208;4.242;2023-05-19T13:16:00;13.63;;;3.33;;
19163;SDS011;9714;51.208;4.242;2023-05-19T13:18:40;12.23;;;2.80;;
19163;SDS011;9714;51.208;4.242;2023-05-19T13:24:29;12.38;;;3.10;;
19163;SDS011;9714;51.208;4.242;2023-05-19T13:27:09;11.63;;;3.03;;
19163;SDS011;9714;51.208;4.242;2023-05-19T13:29:46;13.68;;;3.08;;
19163;SDS011;9714;51.208;4.242;2023-05-19T13:32:26;12.50;;;3.25;;
19163;SDS011;9714;51.208;4.242;2023-05-19T13:37:45;13.13;;;3.10;;
19163;SDS011;9714;51.208;4.242;2023-05-19T13:40:22;13.32;;;3.40;;
19163;SDS011;9714;51.208;4.242;2023-05-19T13:43:00;10.30;;;3.00;;
19163;SDS011;9714;51.208;4.242;2023-05-19T13:45:37;13.73;;;3.80;;
19163;SDS011;9714;51.208;4.242;2023-05-19T13:48:11;12.98;;;3.15;;
19163;SDS011;9714;51.208;4.242;2023-05-19T13:50:45;13.57;;;3.13;;
19163;SDS011;9714;51.208;4.242;2023-05-19T13:53:20;11.77;;;3.00;;
19163;SDS011;9714;51.208;4.242;2023-05-19T13:55:52;11.98;;;2.85;;
19163;SDS011;9714;51.208;4.242;2023-05-19T14:01:25;9.75;;;2.72;;
19163;SDS011;9714;51.208;4.242;2023-05-19T14:04:04;12.27;;;3.47;;
19163;SDS011;9714;51.208;4.242;2023-05-19T14:06:35;11.10;;;3.08;;
19163;SDS011;9714;51.208;4.242;2023-05-19T14:09:19;12.15;;;3.03;;
19163;SDS011;9714;51.208;4.242;2023-05-19T14:12:11;12.00;;;2.90;;
19163;SDS011;9714;51.208;4.242;2023-05-19T14:18:08;13.48;;;2.60;;
19163;SDS011;9714;51.208;4.242;2023-05-19T14:20:46;13.32;;;2.80;;
19163;SDS011;9714;51.208;4.242;2023-05-19T14:23:37;10.82;;;2.80;;
19163;SDS011;9714;51.208;4.242;2023-05-19T14:26:20;11.60;;;2.92;;
19163;SDS011;9714;51.208;4.242;2023-05-19T14:28:52;10.23;;;2.25;;
19163;SDS011;9714;51.208;4.242;2023-05-19T14:31:27;12.65;;;3.03;;
19163;SDS011;9714;51.208;4.242;2023-05-19T14:33:56;12.70;;;2.75;;
19163;SDS011;9714;51.208;4.242;2023-05-19T14:36:24;12.98;;;2.90;;
19163;SDS011;9714;51.208;4.242;2023-05-19T14:41:23;10.13;;;2.50;;
19163;SDS011;9714;51.208;4.242;2023-05-19T14:43:56;13.40;;;3.05;;
19163;SDS011;9714;51.208;4.242;2023-05-19T14:46:24;11.60;;;3.15;;
19163;SDS011;9714;51.208;4.242;2023-05-19T14:48:52;14.07;;;3.22;;
19163;SDS011;9714;51.208;4.242;2023-05-19T14:51:29;10.80;;;2.80;;
19163;SDS011;9714;51.208;4.242;2023-05-19T14:53:57;11.63;;;2.53;;
19163;SDS011;9714;51.208;4.242;2023-05-19T14:56:26;10.63;;;2.50;;
19163;SDS011;9714;51.208;4.242;2023-05-19T14:58:56;9.88;;;2.47;;
19163;SDS011;9714;51.208;4.242;2023-05-19T15:01:24;12.23;;;2.38;;
19163;SDS011;9714;51.208;4.242;2023-05-19T15:03:59;12.88;;;3.13;;
19163;SDS011;9714;51.208;4.242;2023-05-19T15:06:27;12.38;;;2.92;;
19163;SDS011;9714;51.208;4.242;2023-05-19T15:08:58;12.07;;;2.65;;
19163;SDS011;9714;51.208;4.242;2023-05-19T15:11:27;11.00;;;2.45;;
19163;SDS011;9714;51.208;4.242;2023-05-19T15:14:00;17.48;;;2.83;;
19163;SDS011;9714;51.208;4.242;2023-05-19T15:16:33;12.48;;;3.15;;
19163;SDS011;9714;51.208;4.242;2023-05-19T15:19:01;23.88;;;3.10;;
19163;SDS011;9714;51.208;4.242;2023-05-19T15:21:34;17.88;;;2.97;;
19163;SDS011;9714;51.208;4.242;2023-05-19T15:24:08;7.85;;;2.42;;
19163;SDS011;9714;51.208;4.242;2023-05-19T15:26:42;10.40;;;3.05;;
19163;SDS011;9714;51.208;4.242;2023-05-19T15:29:16;11.45;;;2.53;;
19163;SDS011;9714;51.208;4.242;2023-05-19T15:31:59;13.48;;;3.05;;
19163;SDS011;9714;51.208;4.242;2023-05-19T15:37:02;9.63;;;2.38;;
19163;SDS011;9714;51.208;4.242;2023-05-19T15:39:33;11.25;;;3.08;;
19163;SDS011;9714;51.208;4.242;2023-05-19T15:42:15;8.63;;;2.30;;
19163;SDS011;9714;51.208;4.242;2023-05-19T15:44:51;12.18;;;2.40;;
19163;SDS011;9714;51.208;4.242;2023-05-19T15:47:20;23.33;;;3.08;;
19163;SDS011;9714;51.208;4.242;2023-05-19T15:50:01;13.30;;;2.75;;
19163;SDS011;9714;51.208;4.242;2023-05-19T15:52:31;8.75;;;2.38;;
19163;SDS011;9714;51.208;4.242;2023-05-19T15:55:07;13.07;;;3.05;;
19163;SDS011;9714;51.208;4.242;2023-05-19T16:00:29;13.23;;;2.50;;
19163;SDS011;9714;51.208;4.242;2023-05-19T16:03:01;11.50;;;2.67;;
19163;SDS011;9714;51.208;4.242;2023-05-19T16:05:31;10.20;;;2.15;;
19163;SDS011;9714;51.208;4.242;2023-05-19T17:44:05;9.02;;;2.13;;
19163;SDS011;9714;51.208;4.242;2023-05-19T17:46:34;13.00;;;3.05;;
19163;SDS011;9714;51.208;4.242;2023-05-19T17:49:10;10.40;;;2.65;;
19163;SDS011;9714;51.208;4.242;2023-05-19T17:51:38;11.38;;;2.80;;
19163;SDS011;9714;51.208;4.242;2023-05-19T17:54:07;10.55;;;2.28;;
19163;SDS011;9714;51.208;4.242;2023-05-19T17:56:41;12.85;;;2.60;;
19163;SDS011;9714;51.208;4.242;2023-05-19T17:59:12;13.55;;;2.53;;
19163;SDS011;9714;51.208;4.242;2023-05-19T18:01:46;12.65;;;2.75;;
19163;SDS011;9714;51.208;4.242;2023-05-19T18:04:15;11.35;;;2.45;;
19163;SDS011;9714;51.208;4.242;2023-05-19T18:06:46;10.55;;;2.50;;
19163;SDS011;9714;51.208;4.242;2023-05-19T18:09:20;9.80;;;3.05;;
19163;SDS011;9714;51.208;4.242;2023-05-19T18:18:03;10.02;;;2.25;;
19163;SDS011;9714;51.208;4.242;2023-05-19T18:20:33;11.45;;;2.63;;
19163;SDS011;9714;51.208;4.242;2023-05-19T18:23:12;13.10;;;2.28;;
19163;SDS011;9714;51.208;4.242;2023-05-19T18:25:51;13.55;;;2.63;;
19163;SDS011;9714;51.208;4.242;2023-05-19T18:28:26;9.80;;;2.65;;
19163;SDS011;9714;51.208;4.242;2023-05-19T18:36:40;8.25;;;2.17;;
19163;SDS011;9714;51.208;4.242;2023-05-19T18:42:18;11.47;;;2.27;;
19163;SDS011;9714;51.208;4.242;2023-05-19T18:55:22;9.80;;;2.40;;
19163;SDS011;9714;51.208;4.242;2023-05-19T18:58:03;12.27;;;2.90;;